sensor_id;sensor_type;location;lat;lon;timestamp;temperature;humidity
49236;DHT22;35067;48.134;8.378;2024-01-16T00:00:39;-4.20;93.60
49236;DHT22;35067;48.134;8.378;2024-01-16T00:01:45;-4.20;93.50
49236;DHT22;35067;48.134;8.378;2024-01-16T00:02:46;-4.10;93.30
49236;DHT22;35067;48.134;8.378;2024-01-16T00:03:46;-4.20;93.10
49236;DHT22;35067;48.134;8.378;2024-01-16T00:04:47;-4.10;92.70
49236;DHT22;35067;48.134;8.378;2024-01-16T00:05:48;-4.20;92.50
49236;DHT22;35067;48.134;8.378;2024-01-16T00:06:49;-4.20;92.70
49236;DHT22;35067;48.134;8.378;2024-01-16T00:07:50;-4.30;93.10
49236;DHT22;35067;48.134;8.378;2024-01-16T00:08:50;-4.30;93.30
49236;DHT22;35067;48.134;8.378;2024-01-16T00:09:51;-4.30;93.50
49236;DHT22;35067;48.134;8.378;2024-01-16T00:10:54;-4.30;93.40
49236;DHT22;35067;48.134;8.378;2024-01-16T00:11:54;-4.30;93.40
49236;DHT22;35067;48.134;8.378;2024-01-16T00:12:55;-4.40;93.60
49236;DHT22;35067;48.134;8.378;2024-01-16T00:13:55;-4.40;93.40
49236;DHT22;35067;48.134;8.378;2024-01-16T00:14:56;-4.50;93.30
49236;DHT22;35067;48.134;8.378;2024-01-16T00:15:57;-4.40;93.50
49236;DHT22;35067;48.134;8.378;2024-01-16T00:16:58;-4.40;93.30
49236;DHT22;35067;48.134;8.378;2024-01-16T00:17:58;-4.50;93.40
49236;DHT22;35067;48.134;8.378;2024-01-16T00:18:59;-4.50;93.70
49236;DHT22;35067;48.134;8.378;2024-01-16T00:20:00;-4.40;93.70
49236;DHT22;35067;48.134;8.378;2024-01-16T00:21:01;-4.30;93.80
49236;DHT22;35067;48.134;8.378;2024-01-16T00:22:05;-4.30;93.40
49236;DHT22;35067;48.134;8.378;2024-01-16T00:23:06;-4.30;93.10
49236;DHT22;35067;48.134;8.378;2024-01-16T00:24:07;-4.40;92.70
49236;DHT22;35067;48.134;8.378;2024-01-16T00:25:08;-4.40;92.80
49236;DHT22;35067;48.134;8.378;2024-01-16T00:26:19;-4.40;92.80
49236;DHT22;35067;48.134;8.378;2024-01-16T00:27:21;-4.30;93.00
49236;DHT22;35067;48.134;8.378;2024-01-16T00:28:22;-4.30;93.00
49236;DHT22;35067;48.134;8.378;2024-01-16T00:29:22;-4.30;93.00
49236;DHT22;35067;48.134;8.378;2024-01-16T00:30:24;-4.40;93.10
49236;DHT22;35067;48.134;8.378;2024-01-16T00:31:24;-4.40;93.40
49236;DHT22;35067;48.134;8.378;2024-01-16T00:32:25;-4.50;93.30
49236;DHT22;35067;48.134;8.378;2024-01-16T00:33:26;-4.60;93.40
49236;DHT22;35067;48.134;8.378;2024-01-16T00:34:27;-4.50;93.80
49236;DHT22;35067;48.134;8.378;2024-01-16T00:35:28;-4.60;93.80
49236;DHT22;35067;48.134;8.378;2024-01-16T00:36:29;-4.60;93.80
49236;DHT22;35067;48.134;8.378;2024-01-16T00:37:30;-4.60;93.80
49236;DHT22;35067;48.134;8.378;2024-01-16T00:38:33;-4.60;94.00
49236;DHT22;35067;48.134;8.378;2024-01-16T00:39:34;-4.50;94.20
49236;DHT22;35067;48.134;8.378;2024-01-16T00:40:34;-4.50;94.20
49236;DHT22;35067;48.134;8.378;2024-01-16T00:41:35;-4.50;94.20
49236;DHT22;35067;48.134;8.378;2024-01-16T00:42:36;-4.50;94.10
49236;DHT22;35067;48.134;8.378;2024-01-16T00:43:36;-4.50;94.00
49236;DHT22;35067;48.134;8.378;2024-01-16T00:44:37;-4.50;94.10
49236;DHT22;35067;48.134;8.378;2024-01-16T00:45:38;-4.60;94.10
49236;DHT22;35067;48.134;8.378;2024-01-16T00:46:40;-4.60;94.10
49236;DHT22;35067;48.134;8.378;2024-01-16T00:47:41;-4.60;94.00
49236;DHT22;35067;48.134;8.378;2024-01-16T00:48:42;-4.50;93.90
49236;DHT22;35067;48.134;8.378;2024-01-16T00:49:42;-4.50;93.80
49236;DHT22;35067;48.134;8.378;2024-01-16T00:50:43;-4.50;93.90
49236;DHT22;35067;48.134;8.378;2024-01-16T00:51:46;-4.50;94.00
49236;DHT22;35067;48.134;8.378;2024-01-16T00:52:47;-4.50;94.50
49236;DHT22;35067;48.134;8.378;2024-01-16T00:53:47;-4.60;94.60
49236;DHT22;35067;48.134;8.378;2024-01-16T00:54:48;-4.60;94.60
49236;DHT22;35067;48.134;8.378;2024-01-16T00:55:49;-4.60;94.50
49236;DHT22;35067;48.134;8.378;2024-01-16T00:56:50;-4.60;94.20
49236;DHT22;35067;48.134;8.378;2024-01-16T00:57:55;-4.60;93.90
49236;DHT22;35067;48.134;8.378;2024-01-16T00:58:56;-4.60;94.00
49236;DHT22;35067;48.134;8.378;2024-01-16T00:59:56;-4.70;94.10
49236;DHT22;35067;48.134;8.378;2024-01-16T01:00:57;-4.60;94.60
49236;DHT22;35067;48.134;8.378;2024-01-16T01:01:58;-4.70;94.40
49236;DHT22;35067;48.134;8.378;2024-01-16T01:02:59;-4.80;94.70
49236;DHT22;35067;48.134;8.378;2024-01-16T01:03:59;-4.80;94.30
49236;DHT22;35067;48.134;8.378;2024-01-16T01:05:00;-4.90;94.20
49236;DHT22;35067;48.134;8.378;2024-01-16T01:06:01;-4.80;94.40
49236;DHT22;35067;48.134;8.378;2024-01-16T01:07:01;-4.80;94.40
49236;DHT22;35067;48.134;8.378;2024-01-16T01:08:02;-4.90;94.30
49236;DHT22;35067;48.134;8.378;2024-01-16T01:09:03;-4.90;94.40
49236;DHT22;35067;48.134;8.378;2024-01-16T01:10:04;-4.90;95.10
49236;DHT22;35067;48.134;8.378;2024-01-16T01:11:05;-5.00;95.30
49236;DHT22;35067;48.134;8.378;2024-01-16T01:12:06;-5.20;95.00
49236;DHT22;35067;48.134;8.378;2024-01-16T01:13:07;-5.20;95.50
49236;DHT22;35067;48.134;8.378;2024-01-16T01:14:08;-5.30;95.40
49236;DHT22;35067;48.134;8.378;2024-01-16T01:15:09;-5.50;95.50
49236;DHT22;35067;48.134;8.378;2024-01-16T01:16:10;-5.50;96.10
49236;DHT22;35067;48.134;8.378;2024-01-16T01:17:11;-5.60;96.30
49236;DHT22;35067;48.134;8.378;2024-01-16T01:18:12;-5.60;96.50
49236;DHT22;35067;48.134;8.378;2024-01-16T01:19:13;-5.60;96.50
49236;DHT22;35067;48.134;8.378;2024-01-16T01:20:14;-5.80;96.30
49236;DHT22;35067;48.134;8.378;2024-01-16T01:21:15;-5.70;97.30
49236;DHT22;35067;48.134;8.378;2024-01-16T01:22:16;-5.80;97.30
49236;DHT22;35067;48.134;8.378;2024-01-16T01:23:16;-5.90;97.20
49236;DHT22;35067;48.134;8.378;2024-01-16T01:24:17;-5.90;97.60
49236;DHT22;35067;48.134;8.378;2024-01-16T01:25:18;-5.90;97.70
49236;DHT22;35067;48.134;8.378;2024-01-16T01:26:18;-6.00;97.80
49236;DHT22;35067;48.134;8.378;2024-01-16T01:27:19;-6.00;98.00
49236;DHT22;35067;48.134;8.378;2024-01-16T01:28:20;-6.00;98.10
49236;DHT22;35067;48.134;8.378;2024-01-16T01:29:21;-6.00;97.90
49236;DHT22;35067;48.134;8.378;2024-01-16T01:30:21;-5.90;97.90
49236;DHT22;35067;48.134;8.378;2024-01-16T01:31:23;-5.80;97.90
49236;DHT22;35067;48.134;8.378;2024-01-16T01:32:23;-5.90;97.50
49236;DHT22;35067;48.134;8.378;2024-01-16T01:33:24;-5.90;97.90
49236;DHT22;35067;48.134;8.378;2024-01-16T01:34:25;-6.00;98.00
49236;DHT22;35067;48.134;8.378;2024-01-16T01:35:25;-6.00;97.90
49236;DHT22;35067;48.134;8.378;2024-01-16T01:36:27;-6.00;98.00
49236;DHT22;35067;48.134;8.378;2024-01-16T01:37:28;-6.00;98.20
49236;DHT22;35067;48.134;8.378;2024-01-16T01:38:28;-6.00;98.20
49236;DHT22;35067;48.134;8.378;2024-01-16T01:39:29;-5.80;98.00
49236;DHT22;35067;48.134;8.378;2024-01-16T01:40:30;-6.00;97.80
49236;DHT22;35067;48.134;8.378;2024-01-16T01:41:31;-6.00;98.10
49236;DHT22;35067;48.134;8.378;2024-01-16T01:42:31;-6.10;98.60
49236;DHT22;35067;48.134;8.378;2024-01-16T01:43:32;-6.10;98.50
49236;DHT22;35067;48.134;8.378;2024-01-16T01:44:33;-6.10;98.40
49236;DHT22;35067;48.134;8.378;2024-01-16T01:45:33;-6.00;98.70
49236;DHT22;35067;48.134;8.378;2024-01-16T01:46:35;-6.10;98.60
49236;DHT22;35067;48.134;8.378;2024-01-16T01:47:45;-6.10;98.40
49236;DHT22;35067;48.134;8.378;2024-01-16T01:48:47;-6.10;98.50
49236;DHT22;35067;48.134;8.378;2024-01-16T01:49:48;-6.10;98.50
49236;DHT22;35067;48.134;8.378;2024-01-16T01:50:49;-6.00;98.60
49236;DHT22;35067;48.134;8.378;2024-01-16T01:51:50;-6.00;98.90
49236;DHT22;35067;48.134;8.378;2024-01-16T01:52:50;-5.90;99.40
49236;DHT22;35067;48.134;8.378;2024-01-16T01:53:52;-5.90;99.10
49236;DHT22;35067;48.134;8.378;2024-01-16T01:54:53;-5.80;99.20
49236;DHT22;35067;48.134;8.378;2024-01-16T01:55:55;-5.80;99.20
49236;DHT22;35067;48.134;8.378;2024-01-16T01:56:56;-5.70;99.00
49236;DHT22;35067;48.134;8.378;2024-01-16T01:57:56;-5.60;98.80
49236;DHT22;35067;48.134;8.378;2024-01-16T01:58:57;-5.60;98.60
49236;DHT22;35067;48.134;8.378;2024-01-16T02:00:02;-5.60;98.50
49236;DHT22;35067;48.134;8.378;2024-01-16T02:01:05;-5.50;98.30
49236;DHT22;35067;48.134;8.378;2024-01-16T02:02:07;-5.50;98.10
49236;DHT22;35067;48.134;8.378;2024-01-16T02:03:08;-5.50;98.00
49236;DHT22;35067;48.134;8.378;2024-01-16T02:04:10;-5.50;98.00
49236;DHT22;35067;48.134;8.378;2024-01-16T02:05:14;-5.40;97.80
49236;DHT22;35067;48.134;8.378;2024-01-16T02:06:15;-5.40;97.60
49236;DHT22;35067;48.134;8.378;2024-01-16T02:07:17;-5.40;97.40
49236;DHT22;35067;48.134;8.378;2024-01-16T02:08:18;-5.40;97.30
49236;DHT22;35067;48.134;8.378;2024-01-16T02:09:19;-5.40;97.40
49236;DHT22;35067;48.134;8.378;2024-01-16T02:10:20;-5.40;97.30
49236;DHT22;35067;48.134;8.378;2024-01-16T02:11:21;-5.40;96.90
49236;DHT22;35067;48.134;8.378;2024-01-16T02:12:21;-5.40;96.70
49236;DHT22;35067;48.134;8.378;2024-01-16T02:13:22;-5.40;96.20
49236;DHT22;35067;48.134;8.378;2024-01-16T02:14:23;-5.50;95.70
49236;DHT22;35067;48.134;8.378;2024-01-16T02:15:24;-5.50;95.20
49236;DHT22;35067;48.134;8.378;2024-01-16T02:16:25;-5.60;95.00
49236;DHT22;35067;48.134;8.378;2024-01-16T02:17:25;-5.60;94.80
49236;DHT22;35067;48.134;8.378;2024-01-16T02:18:26;-5.80;95.40
49236;DHT22;35067;48.134;8.378;2024-01-16T02:19:27;-5.90;96.00
49236;DHT22;35067;48.134;8.378;2024-01-16T02:20:28;-6.10;95.90
49236;DHT22;35067;48.134;8.378;2024-01-16T02:21:32;-6.10;96.20
49236;DHT22;35067;48.134;8.378;2024-01-16T02:22:38;-6.20;96.60
49236;DHT22;35067;48.134;8.378;2024-01-16T02:23:39;-6.20;96.70
49236;DHT22;35067;48.134;8.378;2024-01-16T02:24:40;-6.40;97.10
49236;DHT22;35067;48.134;8.378;2024-01-16T02:25:44;-6.40;97.30
49236;DHT22;35067;48.134;8.378;2024-01-16T02:26:44;-6.40;97.60
49236;DHT22;35067;48.134;8.378;2024-01-16T02:27:45;-6.50;97.90
49236;DHT22;35067;48.134;8.378;2024-01-16T02:28:47;-6.50;98.40
49236;DHT22;35067;48.134;8.378;2024-01-16T02:29:48;-6.50;98.60
49236;DHT22;35067;48.134;8.378;2024-01-16T02:30:49;-6.50;99.00
49236;DHT22;35067;48.134;8.378;2024-01-16T02:31:49;-6.50;98.90
49236;DHT22;35067;48.134;8.378;2024-01-16T02:32:50;-6.40;99.00
49236;DHT22;35067;48.134;8.378;2024-01-16T02:33:51;-6.50;98.60
49236;DHT22;35067;48.134;8.378;2024-01-16T02:34:51;-6.60;98.20
49236;DHT22;35067;48.134;8.378;2024-01-16T02:35:52;-6.70;98.40
49236;DHT22;35067;48.134;8.378;2024-01-16T02:36:53;-6.70;98.60
49236;DHT22;35067;48.134;8.378;2024-01-16T02:37:54;-6.60;99.20
49236;DHT22;35067;48.134;8.378;2024-01-16T02:38:55;-6.60;99.70
49236;DHT22;35067;48.134;8.378;2024-01-16T02:39:55;-6.60;99.90
49236;DHT22;35067;48.134;8.378;2024-01-16T02:40:56;-6.60;99.90
49236;DHT22;35067;48.134;8.378;2024-01-16T02:41:57;-6.60;99.90
49236;DHT22;35067;48.134;8.378;2024-01-16T02:42:57;-6.70;99.70
49236;DHT22;35067;48.134;8.378;2024-01-16T02:43:58;-6.60;99.90
49236;DHT22;35067;48.134;8.378;2024-01-16T02:44:59;-6.60;99.30
49236;DHT22;35067;48.134;8.378;2024-01-16T02:45:59;-6.70;98.90
49236;DHT22;35067;48.134;8.378;2024-01-16T02:47:00;-6.90;98.90
49236;DHT22;35067;48.134;8.378;2024-01-16T02:48:01;-6.80;99.20
49236;DHT22;35067;48.134;8.378;2024-01-16T02:49:03;-6.80;99.10
49236;DHT22;35067;48.134;8.378;2024-01-16T02:50:04;-6.80;99.10
49236;DHT22;35067;48.134;8.378;2024-01-16T02:51:05;-6.90;99.00
49236;DHT22;35067;48.134;8.378;2024-01-16T02:52:06;-6.80;99.60
49236;DHT22;35067;48.134;8.378;2024-01-16T02:53:07;-6.90;99.80
49236;DHT22;35067;48.134;8.378;2024-01-16T02:54:07;-6.90;99.90
49236;DHT22;35067;48.134;8.378;2024-01-16T02:55:09;-6.80;99.90
49236;DHT22;35067;48.134;8.378;2024-01-16T02:56:10;-6.90;99.90
49236;DHT22;35067;48.134;8.378;2024-01-16T02:57:10;-6.90;99.90
49236;DHT22;35067;48.134;8.378;2024-01-16T02:58:11;-6.90;99.90
49236;DHT22;35067;48.134;8.378;2024-01-16T02:59:12;-6.90;99.70
49236;DHT22;35067;48.134;8.378;2024-01-16T03:00:13;-6.80;99.50
49236;DHT22;35067;48.134;8.378;2024-01-16T03:01:14;-6.80;99.30
49236;DHT22;35067;48.134;8.378;2024-01-16T03:02:16;-6.90;99.30
49236;DHT22;35067;48.134;8.378;2024-01-16T03:03:17;-7.00;99.10
49236;DHT22;35067;48.134;8.378;2024-01-16T03:04:17;-7.10;99.10
49236;DHT22;35067;48.134;8.378;2024-01-16T03:05:18;-7.00;99.20
49236;DHT22;35067;48.134;8.378;2024-01-16T03:06:25;-7.20;99.20
49236;DHT22;35067;48.134;8.378;2024-01-16T03:07:26;-7.40;99.10
49236;DHT22;35067;48.134;8.378;2024-01-16T03:08:26;-7.40;99.10
49236;DHT22;35067;48.134;8.378;2024-01-16T03:09:27;-7.40;99.20
49236;DHT22;35067;48.134;8.378;2024-01-16T03:10:28;-7.40;99.50
49236;DHT22;35067;48.134;8.378;2024-01-16T03:11:28;-7.50;99.30
49236;DHT22;35067;48.134;8.378;2024-01-16T03:12:32;-7.60;99.20
49236;DHT22;35067;48.134;8.378;2024-01-16T03:13:33;-7.60;99.20
49236;DHT22;35067;48.134;8.378;2024-01-16T03:14:34;-7.50;99.80
49236;DHT22;35067;48.134;8.378;2024-01-16T03:15:36;-7.60;99.90
49236;DHT22;35067;48.134;8.378;2024-01-16T03:16:37;-7.70;99.90
49236;DHT22;35067;48.134;8.378;2024-01-16T03:17:37;-7.70;99.80
49236;DHT22;35067;48.134;8.378;2024-01-16T03:18:38;-7.70;99.90
49236;DHT22;35067;48.134;8.378;2024-01-16T03:19:39;-7.80;99.90
49236;DHT22;35067;48.134;8.378;2024-01-16T03:20:40;-7.80;99.90
49236;DHT22;35067;48.134;8.378;2024-01-16T03:21:40;-7.90;99.70
49236;DHT22;35067;48.134;8.378;2024-01-16T03:22:41;-7.90;99.80
49236;DHT22;35067;48.134;8.378;2024-01-16T03:23:42;-7.70;99.60
49236;DHT22;35067;48.134;8.378;2024-01-16T03:24:42;-7.80;99.60
49236;DHT22;35067;48.134;8.378;2024-01-16T03:25:43;-7.80;99.40
49236;DHT22;35067;48.134;8.378;2024-01-16T03:26:44;-7.70;99.40
49236;DHT22;35067;48.134;8.378;2024-01-16T03:27:45;-7.70;99.70
49236;DHT22;35067;48.134;8.378;2024-01-16T03:28:45;-7.80;99.30
49236;DHT22;35067;48.134;8.378;2024-01-16T03:29:46;-7.80;99.10
49236;DHT22;35067;48.134;8.378;2024-01-16T03:30:47;-7.80;99.80
49236;DHT22;35067;48.134;8.378;2024-01-16T03:31:47;-7.80;99.90
49236;DHT22;35067;48.134;8.378;2024-01-16T03:32:49;-7.80;99.90
49236;DHT22;35067;48.134;8.378;2024-01-16T03:33:50;-7.90;99.90
49236;DHT22;35067;48.134;8.378;2024-01-16T03:34:50;-7.90;99.90
49236;DHT22;35067;48.134;8.378;2024-01-16T03:35:51;-7.70;99.90
49236;DHT22;35067;48.134;8.378;2024-01-16T03:36:52;-7.70;99.90
49236;DHT22;35067;48.134;8.378;2024-01-16T03:37:53;-7.70;99.90
49236;DHT22;35067;48.134;8.378;2024-01-16T03:38:54;-7.50;99.90
49236;DHT22;35067;48.134;8.378;2024-01-16T03:39:54;-7.60;99.90
49236;DHT22;35067;48.134;8.378;2024-01-16T03:40:55;-7.60;99.90
49236;DHT22;35067;48.134;8.378;2024-01-16T03:41:56;-7.60;99.90
49236;DHT22;35067;48.134;8.378;2024-01-16T03:42:57;-7.60;99.70
49236;DHT22;35067;48.134;8.378;2024-01-16T03:43:58;-7.50;99.40
49236;DHT22;35067;48.134;8.378;2024-01-16T03:44:59;-7.60;99.20
49236;DHT22;35067;48.134;8.378;2024-01-16T03:45:59;-7.50;98.90
49236;DHT22;35067;48.134;8.378;2024-01-16T03:47:00;-7.60;98.50
49236;DHT22;35067;48.134;8.378;2024-01-16T03:48:02;-7.70;98.70
49236;DHT22;35067;48.134;8.378;2024-01-16T03:49:03;-7.80;98.90
49236;DHT22;35067;48.134;8.378;2024-01-16T03:50:04;-7.90;98.60
49236;DHT22;35067;48.134;8.378;2024-01-16T03:51:05;-7.90;98.50
49236;DHT22;35067;48.134;8.378;2024-01-16T03:52:07;-7.80;98.60
49236;DHT22;35067;48.134;8.378;2024-01-16T03:53:07;-7.80;98.50
49236;DHT22;35067;48.134;8.378;2024-01-16T03:54:09;-7.70;98.30
49236;DHT22;35067;48.134;8.378;2024-01-16T03:55:09;-7.80;98.40
49236;DHT22;35067;48.134;8.378;2024-01-16T03:56:10;-7.90;99.10
49236;DHT22;35067;48.134;8.378;2024-01-16T03:57:11;-8.00;99.60
49236;DHT22;35067;48.134;8.378;2024-01-16T03:58:12;-8.00;99.30
49236;DHT22;35067;48.134;8.378;2024-01-16T03:59:13;-8.00;99.10
49236;DHT22;35067;48.134;8.378;2024-01-16T04:00:14;-7.90;98.80
49236;DHT22;35067;48.134;8.378;2024-01-16T04:01:14;-7.90;98.70
49236;DHT22;35067;48.134;8.378;2024-01-16T04:02:15;-7.90;98.90
49236;DHT22;35067;48.134;8.378;2024-01-16T04:03:16;-8.00;98.90
49236;DHT22;35067;48.134;8.378;2024-01-16T04:04:17;-8.10;98.70
49236;DHT22;35067;48.134;8.378;2024-01-16T04:05:18;-8.30;98.00
49236;DHT22;35067;48.134;8.378;2024-01-16T04:06:18;-8.40;97.90
49236;DHT22;35067;48.134;8.378;2024-01-16T04:07:22;-8.30;98.40
49236;DHT22;35067;48.134;8.378;2024-01-16T04:08:25;-8.20;98.80
49236;DHT22;35067;48.134;8.378;2024-01-16T04:09:26;-8.10;99.50
49236;DHT22;35067;48.134;8.378;2024-01-16T04:10:26;-8.10;99.60
49236;DHT22;35067;48.134;8.378;2024-01-16T04:11:27;-8.10;99.90
49236;DHT22;35067;48.134;8.378;2024-01-16T04:12:28;-8.10;99.90
49236;DHT22;35067;48.134;8.378;2024-01-16T04:13:28;-8.20;99.90
49236;DHT22;35067;48.134;8.378;2024-01-16T04:14:29;-8.20;99.90
49236;DHT22;35067;48.134;8.378;2024-01-16T04:15:29;-8.20;99.90
49236;DHT22;35067;48.134;8.378;2024-01-16T04:16:30;-8.10;99.90
49236;DHT22;35067;48.134;8.378;2024-01-16T04:17:31;-8.20;99.90
49236;DHT22;35067;48.134;8.378;2024-01-16T04:18:39;-8.10;99.90
49236;DHT22;35067;48.134;8.378;2024-01-16T04:19:41;-8.10;99.90
49236;DHT22;35067;48.134;8.378;2024-01-16T04:20:42;-8.10;99.90
49236;DHT22;35067;48.134;8.378;2024-01-16T04:21:43;-8.00;99.90
49236;DHT22;35067;48.134;8.378;2024-01-16T04:22:44;-8.00;99.90
49236;DHT22;35067;48.134;8.378;2024-01-16T04:23:45;-8.00;99.90
49236;DHT22;35067;48.134;8.378;2024-01-16T04:24:46;-8.10;99.90
49236;DHT22;35067;48.134;8.378;2024-01-16T04:25:48;-8.00;99.90
49236;DHT22;35067;48.134;8.378;2024-01-16T04:26:48;-8.00;99.70
49236;DHT22;35067;48.134;8.378;2024-01-16T04:27:50;-8.00;99.40
49236;DHT22;35067;48.134;8.378;2024-01-16T04:28:51;-8.10;99.10
49236;DHT22;35067;48.134;8.378;2024-01-16T04:29:52;-8.00;99.10
49236;DHT22;35067;48.134;8.378;2024-01-16T04:30:53;-8.10;99.00
49236;DHT22;35067;48.134;8.378;2024-01-16T04:31:54;-8.10;99.00
49236;DHT22;35067;48.134;8.378;2024-01-16T04:32:55;-8.20;98.90
49236;DHT22;35067;48.134;8.378;2024-01-16T04:33:55;-8.10;99.00
49236;DHT22;35067;48.134;8.378;2024-01-16T04:34:56;-8.20;98.90
49236;DHT22;35067;48.134;8.378;2024-01-16T04:35:57;-8.30;98.30
49236;DHT22;35067;48.134;8.378;2024-01-16T04:36:58;-8.40;98.20
49236;DHT22;35067;48.134;8.378;2024-01-16T04:37:59;-8.50;98.20
49236;DHT22;35067;48.134;8.378;2024-01-16T04:38:59;-8.50;98.20
49236;DHT22;35067;48.134;8.378;2024-01-16T04:40:00;-8.40;98.40
49236;DHT22;35067;48.134;8.378;2024-01-16T04:41:02;-8.30;98.40
49236;DHT22;35067;48.134;8.378;2024-01-16T04:42:03;-8.20;98.40
49236;DHT22;35067;48.134;8.378;2024-01-16T04:43:04;-8.30;97.80
49236;DHT22;35067;48.134;8.378;2024-01-16T04:44:05;-8.20;98.10
49236;DHT22;35067;48.134;8.378;2024-01-16T04:45:07;-8.20;98.50
49236;DHT22;35067;48.134;8.378;2024-01-16T04:46:07;-8.20;98.90
49236;DHT22;35067;48.134;8.378;2024-01-16T04:47:08;-8.20;99.20
49236;DHT22;35067;48.134;8.378;2024-01-16T04:48:09;-8.20;99.40
49236;DHT22;35067;48.134;8.378;2024-01-16T04:49:10;-8.20;99.30
49236;DHT22;35067;48.134;8.378;2024-01-16T04:50:11;-8.20;99.20
49236;DHT22;35067;48.134;8.378;2024-01-16T04:51:12;-8.20;99.00
49236;DHT22;35067;48.134;8.378;2024-01-16T04:52:12;-8.30;98.60
49236;DHT22;35067;48.134;8.378;2024-01-16T04:53:14;-8.20;98.30
49236;DHT22;35067;48.134;8.378;2024-01-16T04:54:14;-8.20;98.00
49236;DHT22;35067;48.134;8.378;2024-01-16T04:55:15;-8.20;97.90
49236;DHT22;35067;48.134;8.378;2024-01-16T04:56:16;-8.20;98.10
49236;DHT22;35067;48.134;8.378;2024-01-16T04:57:16;-8.30;97.70
49236;DHT22;35067;48.134;8.378;2024-01-16T04:58:17;-8.40;97.40
49236;DHT22;35067;48.134;8.378;2024-01-16T04:59:19;-8.50;97.10
49236;DHT22;35067;48.134;8.378;2024-01-16T05:00:19;-8.50;97.20
49236;DHT22;35067;48.134;8.378;2024-01-16T05:01:20;-8.60;97.30
49236;DHT22;35067;48.134;8.378;2024-01-16T05:02:21;-8.60;97.50
49236;DHT22;35067;48.134;8.378;2024-01-16T05:03:21;-8.50;98.40
49236;DHT22;35067;48.134;8.378;2024-01-16T05:04:22;-8.60;98.20
49236;DHT22;35067;48.134;8.378;2024-01-16T05:05:23;-8.70;98.00
49236;DHT22;35067;48.134;8.378;2024-01-16T05:06:23;-8.80;98.60
49236;DHT22;35067;48.134;8.378;2024-01-16T05:07:24;-8.70;99.10
49236;DHT22;35067;48.134;8.378;2024-01-16T05:08:25;-8.60;98.60
49236;DHT22;35067;48.134;8.378;2024-01-16T05:09:25;-8.40;98.60
49236;DHT22;35067;48.134;8.378;2024-01-16T05:10:26;-8.50;98.60
49236;DHT22;35067;48.134;8.378;2024-01-16T05:11:27;-8.50;99.10
49236;DHT22;35067;48.134;8.378;2024-01-16T05:12:28;-8.50;99.50
49236;DHT22;35067;48.134;8.378;2024-01-16T05:13:28;-8.50;99.60
49236;DHT22;35067;48.134;8.378;2024-01-16T05:14:29;-8.50;99.50
49236;DHT22;35067;48.134;8.378;2024-01-16T05:15:30;-8.50;99.30
49236;DHT22;35067;48.134;8.378;2024-01-16T05:16:30;-8.40;99.30
49236;DHT22;35067;48.134;8.378;2024-01-16T05:17:31;-8.40;99.10
49236;DHT22;35067;48.134;8.378;2024-01-16T05:18:32;-8.40;99.40
49236;DHT22;35067;48.134;8.378;2024-01-16T05:19:36;-8.30;98.60
49236;DHT22;35067;48.134;8.378;2024-01-16T05:20:37;-8.30;98.60
49236;DHT22;35067;48.134;8.378;2024-01-16T05:21:40;-8.30;98.80
49236;DHT22;35067;48.134;8.378;2024-01-16T05:22:41;-8.40;98.60
49236;DHT22;35067;48.134;8.378;2024-01-16T05:23:42;-8.50;98.30
49236;DHT22;35067;48.134;8.378;2024-01-16T05:24:42;-8.50;98.50
49236;DHT22;35067;48.134;8.378;2024-01-16T05:25:43;-8.50;98.40
49236;DHT22;35067;48.134;8.378;2024-01-16T05:26:44;-8.50;98.30
49236;DHT22;35067;48.134;8.378;2024-01-16T05:27:45;-8.50;98.10
49236;DHT22;35067;48.134;8.378;2024-01-16T05:28:45;-8.50;97.70
49236;DHT22;35067;48.134;8.378;2024-01-16T05:29:46;-8.50;97.60
49236;DHT22;35067;48.134;8.378;2024-01-16T05:30:47;-8.40;97.50
49236;DHT22;35067;48.134;8.378;2024-01-16T05:31:47;-8.40;97.20
49236;DHT22;35067;48.134;8.378;2024-01-16T05:32:48;-8.30;97.50
49236;DHT22;35067;48.134;8.378;2024-01-16T05:33:49;-8.50;97.40
49236;DHT22;35067;48.134;8.378;2024-01-16T05:34:49;-8.50;97.70
49236;DHT22;35067;48.134;8.378;2024-01-16T05:35:50;-8.40;97.60
49236;DHT22;35067;48.134;8.378;2024-01-16T05:36:51;-8.50;97.70
49236;DHT22;35067;48.134;8.378;2024-01-16T05:37:52;-8.40;98.30
49236;DHT22;35067;48.134;8.378;2024-01-16T05:38:52;-8.30;97.80
49236;DHT22;35067;48.134;8.378;2024-01-16T05:39:53;-8.40;97.10
49236;DHT22;35067;48.134;8.378;2024-01-16T05:40:54;-8.40;97.10
49236;DHT22;35067;48.134;8.378;2024-01-16T05:41:55;-8.30;97.30
49236;DHT22;35067;48.134;8.378;2024-01-16T05:42:55;-8.30;97.50
49236;DHT22;35067;48.134;8.378;2024-01-16T05:43:56;-8.40;97.20
49236;DHT22;35067;48.134;8.378;2024-01-16T05:44:57;-8.30;97.30
49236;DHT22;35067;48.134;8.378;2024-01-16T05:45:58;-8.20;97.60
49236;DHT22;35067;48.134;8.378;2024-01-16T05:46:58;-8.20;97.60
49236;DHT22;35067;48.134;8.378;2024-01-16T05:47:59;-8.30;97.60
49236;DHT22;35067;48.134;8.378;2024-01-16T05:49:00;-8.30;97.80
49236;DHT22;35067;48.134;8.378;2024-01-16T05:50:01;-8.40;97.80
49236;DHT22;35067;48.134;8.378;2024-01-16T05:51:01;-8.40;97.70
49236;DHT22;35067;48.134;8.378;2024-01-16T05:52:02;-8.50;97.00
49236;DHT22;35067;48.134;8.378;2024-01-16T05:53:03;-8.50;96.90
49236;DHT22;35067;48.134;8.378;2024-01-16T05:54:03;-8.40;97.10
49236;DHT22;35067;48.134;8.378;2024-01-16T05:55:04;-8.40;96.80
49236;DHT22;35067;48.134;8.378;2024-01-16T05:56:05;-8.30;96.80
49236;DHT22;35067;48.134;8.378;2024-01-16T05:57:06;-8.40;96.50
49236;DHT22;35067;48.134;8.378;2024-01-16T05:58:07;-8.50;96.30
49236;DHT22;35067;48.134;8.378;2024-01-16T05:59:07;-8.60;96.60
49236;DHT22;35067;48.134;8.378;2024-01-16T06:00:09;-8.60;96.70
49236;DHT22;35067;48.134;8.378;2024-01-16T06:01:10;-8.60;97.00
49236;DHT22;35067;48.134;8.378;2024-01-16T06:02:13;-8.50;97.10
49236;DHT22;35067;48.134;8.378;2024-01-16T06:03:14;-8.50;96.70
49236;DHT22;35067;48.134;8.378;2024-01-16T06:04:15;-8.50;96.50
49236;DHT22;35067;48.134;8.378;2024-01-16T06:05:16;-8.60;96.70
49236;DHT22;35067;48.134;8.378;2024-01-16T06:06:17;-8.60;97.20
49236;DHT22;35067;48.134;8.378;2024-01-16T06:07:17;-8.50;97.40
49236;DHT22;35067;48.134;8.378;2024-01-16T06:08:18;-8.40;97.50
49236;DHT22;35067;48.134;8.378;2024-01-16T06:09:20;-8.40;97.10
49236;DHT22;35067;48.134;8.378;2024-01-16T06:10:21;-8.20;97.10
49236;DHT22;35067;48.134;8.378;2024-01-16T06:11:32;-8.20;97.00
49236;DHT22;35067;48.134;8.378;2024-01-16T06:12:34;-8.10;97.10
49236;DHT22;35067;48.134;8.378;2024-01-16T06:13:35;-8.20;96.60
49236;DHT22;35067;48.134;8.378;2024-01-16T06:14:35;-8.20;96.60
49236;DHT22;35067;48.134;8.378;2024-01-16T06:15:36;-8.10;96.60
49236;DHT22;35067;48.134;8.378;2024-01-16T06:16:37;-8.20;96.80
49236;DHT22;35067;48.134;8.378;2024-01-16T06:17:38;-8.20;96.70
49236;DHT22;35067;48.134;8.378;2024-01-16T06:18:39;-8.40;96.60
49236;DHT22;35067;48.134;8.378;2024-01-16T06:19:39;-8.40;96.60
49236;DHT22;35067;48.134;8.378;2024-01-16T06:20:40;-8.40;96.50
49236;DHT22;35067;48.134;8.378;2024-01-16T06:21:41;-8.30;96.30
49236;DHT22;35067;48.134;8.378;2024-01-16T06:22:41;-8.30;96.10
49236;DHT22;35067;48.134;8.378;2024-01-16T06:23:42;-8.30;96.60
49236;DHT22;35067;48.134;8.378;2024-01-16T06:24:43;-8.30;97.10
49236;DHT22;35067;48.134;8.378;2024-01-16T06:25:43;-8.40;97.40